Main page
METAR-TAF:

METAR-TAF

Airports :

Vitebsk Vostochny Airport

Vitebsk, Belarus

latitude: 55-10N, longitude: 030-13E, elevation: 176 m

Current weather observation

The report was made 9 hours and 4 minutes ago, at 16:00 UTC
Wind 12 kt from the West/Southwest with gusts up to 17 kt
Temperature 7°C
Humidity 70%
Pressure 1008 hPa
Visibility 10 km or more
Scattered clouds at a height of 4000 ft

METAR: UMII 171600Z 24006G09MPS 9999 SCT040 07/02 Q1008 R23/290050 NOSIG

Time: 04:04 (01:04 UTC)

Forecast

The report was made 11 hours and 0 minutes ago, at 14:04 UTC
Forecast valid from 17 at 15 UTC to 17 at 24 UTC
Wind 12 kt from the Southwest with gusts up to 21 kt
Visibility: 6000 m
Broken clouds at a height of 1500 ft
Temporary
from 17 at 15 UTC to 17 at 24 UTC
Wind 29 kt from variable directions
Visibility: 2000 m
Broken clouds at a height of 500 ft
Broken clouds at a height of 1200 ft, Cumulonimbus.
rain showers, mist

TAF: UMII 171404Z 1715/1724 22006G11MPS 6000 BKN015 TEMPO 1715/1724 VRB15MPS 2000 SHRA BR BKN005 BKN012CB

Weather observations and forecasts of more than 4000 airports (METAR and TAF reports).

The available stations are represented by yellow and red dots on the map.

Hover mouse over dot to see the name of the station.

Then click to see weather observations and forecasts.

To change the map : click on the green buttons with a black cross to zoom in, on the green button with a dash to zoom out, or on the green arrows for adjacent maps.


METAR-TAF: